Sargents School, Colorado
Current Conditions -  °F | °C
As of 9:30 AM on Monday 26 Jan 2015 (Local Time) from KRCV Reporting Station
Clear Clear  
Wind Chill: 32°   Ceiling: Unl
Heat Index: 32°   Visibility: 10mi
Dew Point: 19°   Wind: 3mph
Humidity: 57%   Direction: 40°NE
Pressure: 30.48"   Gusts: NA
Location:  37.5196°N, 106.176°W
Report Text: KRCV 261630Z AUTO 04003KT 10SM CLR 00/M07 A3048 RMK AO2 T00021075
Loading
Personal Weather Stations






























Interactive Weather Map New forecast layout! Learn more

10-Day Weather Forecast

Advertisements
Track Severe Weather on mobile